createdAt,value
2019-01-19T00:00:57.759Z,17.55
2019-01-19T00:01:57.599Z,17.55
2019-01-19T00:02:57.684Z,17.55
2019-01-19T00:03:57.735Z,17.55
2019-01-19T00:04:57.590Z,17.54
2019-01-19T00:05:57.960Z,17.54
2019-01-19T00:06:57.733Z,17.54
2019-01-19T00:07:57.634Z,17.53
2019-01-19T00:08:57.715Z,17.51
2019-01-19T00:09:57.647Z,17.52
2019-01-19T00:10:57.794Z,17.51
2019-01-19T00:11:57.702Z,17.51
2019-01-19T00:12:57.731Z,17.51
2019-01-19T00:13:57.638Z,17.49
2019-01-19T00:14:57.829Z,17.5
2019-01-19T00:15:57.816Z,17.49
2019-01-19T00:16:57.773Z,17.48
2019-01-19T00:17:57.841Z,17.48
2019-01-19T00:18:57.925Z,17.47
2019-01-19T00:19:57.761Z,17.46
2019-01-19T00:20:57.609Z,17.48
2019-01-19T00:21:58.064Z,17.48
2019-01-19T00:22:57.951Z,17.48
2019-01-19T00:23:57.674Z,17.46
2019-01-19T00:24:57.934Z,17.46
2019-01-19T00:25:57.694Z,17.43
2019-01-19T00:26:57.829Z,17.43
2019-01-19T00:27:57.935Z,17.43
2019-01-19T00:28:58.336Z,17.42
2019-01-19T00:29:57.880Z,17.42
2019-01-19T00:30:57.980Z,17.42
2019-01-19T00:31:58.279Z,17.43
2019-01-19T00:32:57.908Z,17.42
2019-01-19T00:33:57.831Z,17.42
2019-01-19T00:34:57.731Z,17.42
2019-01-19T00:35:57.646Z,17.42
2019-01-19T00:36:57.855Z,17.42
2019-01-19T00:37:57.692Z,17.4
2019-01-19T00:38:58.119Z,17.4
2019-01-19T00:39:57.795Z,17.38
2019-01-19T00:40:58.164Z,17.38
2019-01-19T00:41:59.491Z,17.36
2019-01-19T00:42:58.703Z,17.36
2019-01-19T00:43:58.514Z,17.37
2019-01-19T00:44:57.859Z,17.36
2019-01-19T00:45:58.041Z,17.36
2019-01-19T00:46:58.113Z,17.36
2019-01-19T00:47:59.489Z,17.36
2019-01-19T00:48:58.048Z,17.36
2019-01-19T00:49:57.528Z,17.36
2019-01-19T00:50:57.655Z,17.36
2019-01-19T00:51:57.816Z,17.33
2019-01-19T00:52:59.172Z,17.32
2019-01-19T00:53:57.582Z,17.32
2019-01-19T00:54:57.718Z,17.32
2019-01-19T00:55:57.839Z,17.32
2019-01-19T00:56:57.551Z,17.34
2019-01-19T00:57:57.901Z,17.32
2019-01-19T00:58:57.699Z,17.32
2019-01-19T00:59:57.563Z,17.3
2019-01-19T01:00:57.982Z,17.32
2019-01-19T01:01:57.772Z,17.3
2019-01-19T01:02:57.561Z,17.3
2019-01-19T01:03:57.744Z,17.3
2019-01-19T01:04:57.868Z,17.3
2019-01-19T01:05:57.598Z,17.3
2019-01-19T01:06:57.678Z,17.29
2019-01-19T01:07:57.658Z,17.29
2019-01-19T01:08:59.429Z,17.29
2019-01-19T01:09:57.687Z,17.29
2019-01-19T01:10:57.931Z,17.29
2019-01-19T01:11:58.051Z,17.29
2019-01-19T01:12:57.653Z,17.29
2019-01-19T01:13:58.128Z,17.27
2019-01-19T01:14:57.755Z,17.27
2019-01-19T01:15:57.936Z,17.26
2019-01-19T01:16:57.733Z,17.24
2019-01-19T01:17:59.424Z,17.25
2019-01-19T01:18:58.102Z,17.26
2019-01-19T01:19:57.998Z,17.27
2019-01-19T01:20:57.792Z,17.25
2019-01-19T01:21:58.084Z,17.24
2019-01-19T01:22:58.007Z,17.23
2019-01-19T01:23:57.807Z,17.22
2019-01-19T01:24:57.842Z,17.23
2019-01-19T01:25:58.198Z,17.22
2019-01-19T01:26:57.824Z,17.22
2019-01-19T01:27:57.837Z,17.22
2019-01-19T01:28:57.510Z,17.21
2019-01-19T01:29:57.847Z,17.22
2019-01-19T01:30:57.717Z,17.21
2019-01-19T01:31:58.050Z,17.21
2019-01-19T01:32:57.721Z,17.21
2019-01-19T01:33:57.554Z,17.19
2019-01-19T01:34:58.005Z,17.18
2019-01-19T01:35:57.806Z,17.18
2019-01-19T01:36:57.917Z,17.19
2019-01-19T01:37:57.531Z,17.17
2019-01-19T01:38:57.696Z,17.17
2019-01-19T01:39:57.747Z,17.17
2019-01-19T01:40:58.065Z,17.17
2019-01-19T01:41:58.125Z,17.17
2019-01-19T01:42:57.969Z,17.17
2019-01-19T01:43:57.491Z,17.17
2019-01-19T01:44:57.620Z,17.16
2019-01-19T01:45:57.712Z,17.17
2019-01-19T01:46:57.745Z,17.15
2019-01-19T01:47:57.771Z,17.15
2019-01-19T01:48:57.703Z,17.17
2019-01-19T01:49:57.424Z,17.15
2019-01-19T01:50:57.631Z,17.15
2019-01-19T01:51:57.689Z,17.16
2019-01-19T01:52:57.725Z,17.15
2019-01-19T01:53:57.710Z,17.16
2019-01-19T01:54:57.738Z,17.16
2019-01-19T01:55:57.699Z,17.14
2019-01-19T01:56:57.597Z,17.14
2019-01-19T01:57:57.593Z,17.12
2019-01-19T01:58:57.760Z,17.12
2019-01-19T01:59:57.739Z,17.11
2019-01-19T02:00:57.721Z,17.1
2019-01-19T02:01:57.784Z,17.11
2019-01-19T02:02:57.814Z,17.12
2019-01-19T02:03:57.920Z,17.11
2019-01-19T02:04:58.391Z,17.1
2019-01-19T02:05:58.612Z,17.1
2019-01-19T02:06:57.811Z,17.1
2019-01-19T02:07:57.919Z,17.1
2019-01-19T02:08:57.963Z,17.09
2019-01-19T02:09:57.691Z,17.1
2019-01-19T02:10:57.716Z,17.08
2019-01-19T02:11:57.581Z,17.09
2019-01-19T02:12:57.844Z,17.09
2019-01-19T02:13:57.713Z,17.07
2019-01-19T02:14:57.869Z,17.06
2019-01-19T02:15:57.676Z,17.07
2019-01-19T02:16:57.699Z,17.07
2019-01-19T02:17:57.482Z,17.06
2019-01-19T02:18:57.732Z,17.04
2019-01-19T02:19:57.677Z,17.05
2019-01-19T02:20:57.938Z,17.06
2019-01-19T02:21:57.925Z,17.04
2019-01-19T02:22:57.641Z,17.04
2019-01-19T02:23:57.563Z,17.04
2019-01-19T02:24:57.530Z,17.04
2019-01-19T02:25:57.841Z,17.04
2019-01-19T02:26:57.715Z,17.04
2019-01-19T02:27:57.872Z,17.03
2019-01-19T02:28:57.650Z,17.02
2019-01-19T02:29:57.804Z,17.03
2019-01-19T02:30:57.630Z,17.04
2019-01-19T02:31:57.672Z,17.02
2019-01-19T02:32:57.708Z,17.01
2019-01-19T02:33:57.718Z,17.03
2019-01-19T02:34:57.941Z,17.04
2019-01-19T02:35:57.547Z,17.03
2019-01-19T02:36:57.543Z,17.02
2019-01-19T02:37:57.954Z,17.01
2019-01-19T02:38:57.819Z,17.01
2019-01-19T02:39:57.807Z,16.99
2019-01-19T02:40:57.742Z,16.99
2019-01-19T02:41:57.610Z,16.99
2019-01-19T02:42:57.717Z,16.99
2019-01-19T02:43:57.868Z,16.98
2019-01-19T02:44:57.552Z,16.98
2019-01-19T02:45:58.335Z,16.99
2019-01-19T02:46:58.103Z,16.98
2019-01-19T02:47:57.821Z,16.98
2019-01-19T02:48:57.914Z,16.98
2019-01-19T02:49:57.694Z,16.98
2019-01-19T02:50:57.621Z,16.98
2019-01-19T02:51:57.750Z,16.96
2019-01-19T02:52:57.859Z,16.95
2019-01-19T02:53:58.014Z,16.95
2019-01-19T02:54:57.703Z,16.97
2019-01-19T02:55:58.360Z,16.97
2019-01-19T02:56:57.814Z,16.95
2019-01-19T02:57:58.131Z,16.95
2019-01-19T02:58:57.669Z,16.96
2019-01-19T02:59:59.534Z,16.94
2019-01-19T03:00:57.539Z,16.93
2019-01-19T03:01:57.612Z,16.93
2019-01-19T03:02:57.694Z,16.93
2019-01-19T03:03:57.449Z,16.93
2019-01-19T03:04:58.642Z,16.93
2019-01-19T03:05:57.644Z,16.94
2019-01-19T03:06:57.547Z,16.92
2019-01-19T03:07:57.623Z,16.91
2019-01-19T03:08:57.716Z,16.91
2019-01-19T03:09:57.974Z,16.9
2019-01-19T03:10:58.005Z,16.9
2019-01-19T03:11:57.622Z,16.9
2019-01-19T03:12:57.579Z,16.89
2019-01-19T03:13:57.877Z,16.89
2019-01-19T03:14:57.996Z,16.9
2019-01-19T03:15:58.075Z,16.88
2019-01-19T03:16:57.608Z,16.9
2019-01-19T03:17:57.901Z,16.89
2019-01-19T03:18:57.624Z,16.9
2019-01-19T03:19:57.622Z,16.89
2019-01-19T03:20:57.826Z,16.9
2019-01-19T03:21:57.624Z,16.88
2019-01-19T03:22:58.010Z,16.87
2019-01-19T03:23:57.659Z,16.87
2019-01-19T03:24:57.456Z,16.86
2019-01-19T03:25:57.662Z,16.87
2019-01-19T03:26:57.974Z,16.87
2019-01-19T03:27:57.670Z,16.86
2019-01-19T03:28:57.830Z,16.86
2019-01-19T03:29:57.738Z,16.87
2019-01-19T03:30:57.853Z,16.85
2019-01-19T03:31:57.679Z,16.85
2019-01-19T03:32:58.441Z,16.85
2019-01-19T03:33:57.709Z,16.85
2019-01-19T03:34:57.662Z,16.84
2019-01-19T03:36:04.946Z,16.85
2019-01-19T03:36:57.620Z,16.84
2019-01-19T03:37:57.633Z,16.85
2019-01-19T03:38:57.623Z,16.83
2019-01-19T03:39:57.610Z,16.84
2019-01-19T03:40:57.533Z,16.84
2019-01-19T03:41:57.691Z,16.83
2019-01-19T03:42:57.467Z,16.81
2019-01-19T03:43:58.233Z,16.8
2019-01-19T03:44:57.620Z,16.8
2019-01-19T03:45:57.621Z,16.81
2019-01-19T03:46:57.910Z,16.81
2019-01-19T03:47:57.741Z,16.81
2019-01-19T03:48:57.770Z,16.8
2019-01-19T03:49:57.909Z,16.81
2019-01-19T03:50:57.794Z,16.8
2019-01-19T03:51:58.064Z,16.79
2019-01-19T03:52:57.926Z,16.79
2019-01-19T03:53:57.758Z,16.79
2019-01-19T03:54:57.609Z,16.79
2019-01-19T03:55:57.648Z,16.78
2019-01-19T03:56:57.656Z,16.79
2019-01-19T03:57:57.556Z,16.79
2019-01-19T03:58:57.645Z,16.78
2019-01-19T03:59:57.802Z,16.76
2019-01-19T04:00:57.921Z,16.76
2019-01-19T04:01:57.775Z,16.77
2019-01-19T04:02:57.612Z,16.77
2019-01-19T04:03:57.847Z,16.76
2019-01-19T04:04:57.739Z,16.76
2019-01-19T04:05:57.686Z,16.76
2019-01-19T04:06:57.732Z,16.76
2019-01-19T04:07:57.585Z,16.76
2019-01-19T04:08:57.958Z,16.74
2019-01-19T04:09:57.487Z,16.74
2019-01-19T04:10:59.490Z,16.74
2019-01-19T04:11:58.678Z,16.74
2019-01-19T04:12:57.882Z,16.73
2019-01-19T04:13:57.895Z,16.73
2019-01-19T04:14:58.625Z,16.73
2019-01-19T04:15:57.683Z,16.73
2019-01-19T04:16:57.914Z,16.72
2019-01-19T04:17:57.918Z,16.72
2019-01-19T04:18:57.758Z,16.72
2019-01-19T04:19:57.868Z,16.72
2019-01-19T04:20:57.666Z,16.71
2019-01-19T04:21:57.568Z,16.72
2019-01-19T04:22:57.977Z,16.71
2019-01-19T04:23:57.618Z,16.7
2019-01-19T04:24:57.778Z,16.71
2019-01-19T04:25:57.549Z,16.7
2019-01-19T04:26:57.728Z,16.7
2019-01-19T04:27:57.842Z,16.69
2019-01-19T04:28:57.755Z,16.68
2019-01-19T04:29:59.530Z,16.69
2019-01-19T04:30:57.449Z,16.68
2019-01-19T04:31:57.968Z,16.68
2019-01-19T04:32:57.611Z,16.68
2019-01-19T04:33:57.817Z,16.67
2019-01-19T04:34:57.610Z,16.68
2019-01-19T04:35:58.083Z,16.66
2019-01-19T04:36:57.761Z,16.66
2019-01-19T04:37:57.561Z,16.66
2019-01-19T04:38:57.867Z,16.66
2019-01-19T04:39:57.635Z,16.66
2019-01-19T04:40:58.122Z,16.68
2019-01-19T04:41:57.616Z,16.67
2019-01-19T04:42:57.719Z,16.66
2019-01-19T04:43:57.910Z,16.68
2019-01-19T04:44:57.704Z,16.68
2019-01-19T04:45:57.561Z,16.69
2019-01-19T04:46:57.742Z,16.7
2019-01-19T04:47:57.946Z,16.72
2019-01-19T04:48:59.358Z,16.71
2019-01-19T04:49:57.724Z,16.72
2019-01-19T04:50:57.959Z,16.73
2019-01-19T04:51:57.812Z,16.74
2019-01-19T04:52:57.636Z,16.75
2019-01-19T04:53:57.598Z,16.77
2019-01-19T04:54:57.830Z,16.78
2019-01-19T04:55:57.726Z,16.79
2019-01-19T04:56:57.965Z,16.79
2019-01-19T04:57:57.632Z,16.8
2019-01-19T04:58:57.925Z,16.82
2019-01-19T04:59:58.557Z,16.84
2019-01-19T05:00:57.773Z,16.85
2019-01-19T05:01:57.925Z,16.86
2019-01-19T05:02:57.560Z,16.87
2019-01-19T05:03:57.897Z,16.88
2019-01-19T05:04:57.967Z,16.89
2019-01-19T05:05:57.994Z,16.91
2019-01-19T05:06:57.374Z,16.92
2019-01-19T05:07:57.825Z,16.92
2019-01-19T05:08:57.792Z,16.94
2019-01-19T05:09:57.803Z,16.96
2019-01-19T05:10:57.719Z,16.98
2019-01-19T05:11:57.662Z,16.99
2019-01-19T05:12:57.764Z,17
2019-01-19T05:13:57.652Z,17.01
2019-01-19T05:14:57.726Z,17.04
2019-01-19T05:15:57.457Z,17.06
2019-01-19T05:16:57.794Z,17.08
2019-01-19T05:17:57.641Z,17.1
2019-01-19T05:18:57.385Z,17.1
2019-01-19T05:19:57.668Z,17.13
2019-01-19T05:20:57.617Z,17.15
2019-01-19T05:21:57.730Z,17.17
2019-01-19T05:22:57.702Z,17.21
2019-01-19T05:23:57.783Z,17.23
2019-01-19T05:24:57.663Z,17.25
2019-01-19T05:25:57.523Z,17.26
2019-01-19T05:26:57.557Z,17.28
2019-01-19T05:27:57.804Z,17.29
2019-01-19T05:28:57.376Z,17.32
2019-01-19T05:29:57.587Z,17.34
2019-01-19T05:30:59.557Z,17.36
2019-01-19T05:31:57.703Z,17.36
2019-01-19T05:32:58.080Z,17.4
2019-01-19T05:33:57.639Z,17.42
2019-01-19T05:34:57.442Z,17.43
2019-01-19T05:35:58.016Z,17.45
2019-01-19T05:36:57.513Z,17.46
2019-01-19T05:37:57.581Z,17.48
2019-01-19T05:38:57.897Z,17.48
2019-01-19T05:39:57.805Z,17.49
2019-01-19T05:40:57.694Z,17.52
2019-01-19T05:41:57.564Z,17.54
2019-01-19T05:42:57.590Z,17.55
2019-01-19T05:43:58.034Z,17.56
2019-01-19T05:44:57.424Z,17.58
2019-01-19T05:45:57.665Z,17.59
2019-01-19T05:46:57.890Z,17.61
2019-01-19T05:47:57.689Z,17.63
2019-01-19T05:48:58.088Z,17.64
2019-01-19T05:49:57.575Z,17.65
2019-01-19T05:50:57.477Z,17.67
2019-01-19T05:51:57.573Z,17.67
2019-01-19T05:52:57.983Z,17.69
2019-01-19T05:53:57.782Z,17.72
2019-01-19T05:54:57.798Z,17.72
2019-01-19T05:55:57.917Z,17.73
2019-01-19T05:56:58.012Z,17.73
2019-01-19T05:57:57.833Z,17.75
2019-01-19T05:58:59.426Z,17.76
2019-01-19T05:59:57.648Z,17.77
2019-01-19T06:00:57.742Z,17.78
2019-01-19T06:01:57.482Z,17.79
2019-01-19T06:02:57.667Z,17.79
2019-01-19T06:03:57.569Z,17.81
2019-01-19T06:04:57.614Z,17.82
2019-01-19T06:05:57.964Z,17.84
2019-01-19T06:06:57.670Z,17.85
2019-01-19T06:07:57.369Z,17.86
2019-01-19T06:08:58.017Z,17.86
2019-01-19T06:09:59.383Z,17.86
2019-01-19T06:10:58.938Z,17.88
2019-01-19T06:11:58.035Z,17.89
2019-01-19T06:12:57.686Z,17.91
2019-01-19T06:13:57.468Z,17.92
2019-01-19T06:14:57.619Z,17.93
2019-01-19T06:15:57.386Z,17.93
2019-01-19T06:16:57.768Z,17.93
2019-01-19T06:17:57.656Z,17.96
2019-01-19T06:18:57.902Z,17.97
2019-01-19T06:19:57.504Z,17.97
2019-01-19T06:20:57.992Z,17.97
2019-01-19T06:21:57.424Z,17.98
2019-01-19T06:22:57.815Z,17.98
2019-01-19T06:23:57.788Z,17.99
2019-01-19T06:24:57.674Z,18.01
2019-01-19T06:25:57.539Z,18.01
2019-01-19T06:26:57.800Z,18.02
2019-01-19T06:27:57.612Z,18.03
2019-01-19T06:28:59.335Z,18.03
2019-01-19T06:29:57.602Z,18.04
2019-01-19T06:30:57.418Z,18.04
2019-01-19T06:31:57.795Z,18.05
2019-01-19T06:32:57.884Z,18.06
2019-01-19T06:33:57.561Z,18.07
2019-01-19T06:34:59.291Z,18.09
2019-01-19T06:35:57.795Z,18.09
2019-01-19T06:36:57.681Z,18.1
2019-01-19T06:37:57.483Z,18.1
2019-01-19T06:38:57.526Z,18.11
2019-01-19T06:39:57.638Z,18.14
2019-01-19T06:40:57.811Z,18.13
2019-01-19T06:41:58.129Z,18.12
2019-01-19T06:42:58.124Z,18.13
2019-01-19T06:43:57.365Z,18.14
2019-01-19T06:44:57.515Z,18.15
2019-01-19T06:45:57.522Z,18.17
2019-01-19T06:46:57.981Z,18.17
2019-01-19T06:47:58.745Z,18.17
2019-01-19T06:48:57.780Z,18.17
2019-01-19T06:49:57.767Z,18.18
2019-01-19T06:50:57.682Z,18.18
2019-01-19T06:51:57.681Z,18.19
2019-01-19T06:52:57.823Z,18.19
2019-01-19T06:54:02.190Z,18.2
2019-01-19T06:54:57.699Z,18.2
2019-01-19T06:55:57.621Z,18.22
2019-01-19T06:56:57.651Z,18.22
2019-01-19T06:57:57.749Z,18.22
2019-01-19T06:58:57.637Z,18.23
2019-01-19T06:59:57.646Z,18.24
2019-01-19T07:00:57.779Z,18.23
2019-01-19T07:01:57.617Z,18.24
2019-01-19T07:02:57.382Z,18.25
2019-01-19T07:03:57.408Z,18.25
2019-01-19T07:04:57.621Z,18.23
2019-01-19T07:05:57.794Z,18.25
2019-01-19T07:07:03.309Z,18.24
2019-01-19T07:07:57.743Z,18.24
2019-01-19T07:08:57.893Z,18.25
2019-01-19T07:09:57.493Z,18.25
2019-01-19T07:10:57.637Z,18.26
2019-01-19T07:11:57.525Z,18.26
2019-01-19T07:12:57.948Z,18.25
2019-01-19T07:13:59.345Z,18.26
2019-01-19T07:14:57.532Z,18.25
2019-01-19T07:15:57.890Z,18.26
2019-01-19T07:16:57.882Z,18.26
2019-01-19T07:17:57.855Z,18.25
2019-01-19T07:18:57.803Z,18.26
2019-01-19T07:19:58.476Z,18.26
2019-01-19T07:20:57.634Z,18.27
2019-01-19T07:21:58.463Z,18.25
2019-01-19T07:22:57.979Z,18.26
2019-01-19T07:23:57.924Z,18.26
2019-01-19T07:24:57.601Z,18.25
2019-01-19T07:25:57.719Z,18.26
2019-01-19T07:26:58.267Z,18.25
2019-01-19T07:27:57.893Z,18.24
2019-01-19T07:28:57.432Z,18.25
2019-01-19T07:29:57.527Z,18.25
2019-01-19T07:30:57.545Z,18.24
2019-01-19T07:31:57.488Z,18.24
2019-01-19T07:32:57.710Z,18.24
2019-01-19T07:33:57.590Z,18.24
2019-01-19T07:34:57.806Z,18.24
2019-01-19T07:35:57.721Z,18.25
2019-01-19T07:36:57.860Z,18.24
2019-01-19T07:37:57.655Z,18.25
2019-01-19T07:38:57.525Z,18.26
2019-01-19T07:39:57.770Z,18.26
2019-01-19T07:40:57.670Z,18.25
2019-01-19T07:41:57.830Z,18.25
2019-01-19T07:42:57.709Z,18.25
2019-01-19T07:43:58.268Z,18.26
2019-01-19T07:44:57.796Z,18.26
2019-01-19T07:45:57.522Z,18.28
2019-01-19T07:46:58.104Z,18.27
2019-01-19T07:47:58.132Z,18.27
2019-01-19T07:48:57.977Z,18.28
2019-01-19T07:49:57.782Z,18.29
2019-01-19T07:50:57.813Z,18.29
2019-01-19T07:51:57.612Z,18.29
2019-01-19T07:52:57.998Z,18.3
2019-01-19T07:53:57.423Z,18.29
2019-01-19T07:54:58.740Z,18.31
2019-01-19T07:55:57.860Z,18.32
2019-01-19T07:56:57.874Z,18.32
2019-01-19T07:57:57.940Z,18.33
2019-01-19T07:58:57.592Z,18.34
2019-01-19T07:59:57.586Z,18.34
2019-01-19T08:00:57.455Z,18.34
2019-01-19T08:01:57.461Z,18.35
2019-01-19T08:02:57.581Z,18.35
2019-01-19T08:03:57.435Z,18.35
2019-01-19T08:04:57.547Z,18.36
2019-01-19T08:05:57.643Z,18.37
2019-01-19T08:06:57.553Z,18.37
2019-01-19T08:07:57.671Z,18.37
2019-01-19T08:08:57.937Z,18.38
2019-01-19T08:09:57.871Z,18.4
2019-01-19T08:10:57.437Z,18.39
2019-01-19T08:11:57.444Z,18.4
2019-01-19T08:12:58.402Z,18.4
2019-01-19T08:13:57.780Z,18.41
2019-01-19T08:14:57.628Z,18.4
2019-01-19T08:15:57.698Z,18.41
2019-01-19T08:16:57.553Z,18.41
2019-01-19T08:17:57.291Z,18.42
2019-01-19T08:18:57.634Z,18.43
2019-01-19T08:19:57.789Z,18.43
2019-01-19T08:20:58.177Z,18.43
2019-01-19T08:21:57.865Z,18.44
2019-01-19T08:22:57.582Z,18.46
2019-01-19T08:23:57.965Z,18.46
2019-01-19T08:24:57.425Z,18.44
2019-01-19T08:25:57.505Z,18.47
2019-01-19T08:26:57.987Z,18.48
2019-01-19T08:27:57.681Z,18.52
2019-01-19T08:28:57.874Z,18.52
2019-01-19T08:29:58.016Z,18.54
2019-01-19T08:30:57.698Z,18.54
2019-01-19T08:31:57.527Z,18.54
2019-01-19T08:32:58.008Z,18.55
2019-01-19T08:33:57.432Z,18.56
2019-01-19T08:34:57.728Z,18.59
2019-01-19T08:35:57.805Z,18.6
2019-01-19T08:36:57.683Z,18.58
2019-01-19T08:37:57.971Z,18.59
2019-01-19T08:38:57.780Z,18.59
2019-01-19T08:39:57.427Z,18.6
2019-01-19T08:40:57.516Z,18.6
2019-01-19T08:41:57.819Z,18.61
2019-01-19T08:42:57.339Z,18.62
2019-01-19T08:43:57.700Z,18.61
2019-01-19T08:44:57.813Z,18.62
2019-01-19T08:45:57.495Z,18.62
2019-01-19T08:46:57.716Z,18.62
2019-01-19T08:47:57.790Z,18.63
2019-01-19T08:48:57.345Z,18.63
2019-01-19T08:49:57.638Z,18.63
2019-01-19T08:50:57.623Z,18.64
2019-01-19T08:51:57.656Z,18.64
2019-01-19T08:52:57.318Z,18.64
2019-01-19T08:53:57.578Z,18.64
2019-01-19T08:54:58.638Z,18.64
2019-01-19T08:55:57.827Z,18.63
2019-01-19T08:56:58.087Z,18.65
2019-01-19T08:57:57.515Z,18.64
2019-01-19T08:58:57.392Z,18.65
2019-01-19T08:59:57.486Z,18.65
2019-01-19T09:00:57.905Z,18.63
2019-01-19T09:01:57.421Z,18.64
2019-01-19T09:02:58.441Z,18.64
2019-01-19T09:03:59.402Z,18.65
2019-01-19T09:04:57.478Z,18.64
2019-01-19T09:05:58.015Z,18.65
2019-01-19T09:06:57.453Z,18.65
2019-01-19T09:07:57.390Z,18.65
2019-01-19T09:08:57.422Z,18.66
2019-01-19T09:09:57.432Z,18.64
2019-01-19T09:10:57.181Z,18.65
2019-01-19T09:11:57.779Z,18.65
2019-01-19T09:12:57.875Z,18.65
2019-01-19T09:13:57.398Z,18.63
2019-01-19T09:14:57.356Z,18.64
2019-01-19T09:15:57.424Z,18.64
2019-01-19T09:16:58.407Z,18.64
2019-01-19T09:17:58.309Z,18.63
2019-01-19T09:18:57.767Z,18.64
2019-01-19T09:19:57.769Z,18.65
2019-01-19T09:20:57.503Z,18.63
2019-01-19T09:21:57.485Z,18.64
2019-01-19T09:22:57.892Z,18.64
2019-01-19T09:23:58.366Z,18.64
2019-01-19T09:24:57.604Z,18.64
2019-01-19T09:25:58.392Z,18.65
2019-01-19T09:26:57.852Z,18.66
2019-01-19T09:27:58.022Z,18.66
2019-01-19T09:28:57.489Z,18.67
2019-01-19T09:29:57.849Z,18.66
2019-01-19T09:30:57.553Z,18.66
2019-01-19T09:31:57.911Z,18.66
2019-01-19T09:32:57.846Z,18.67
2019-01-19T09:33:57.453Z,18.66
2019-01-19T09:34:57.582Z,18.66
2019-01-19T09:35:57.558Z,18.67
2019-01-19T09:36:57.446Z,18.67
2019-01-19T09:37:58.857Z,18.67
2019-01-19T09:38:58.053Z,18.68
2019-01-19T09:39:57.885Z,18.68
2019-01-19T09:41:01.409Z,18.68
2019-01-19T09:41:57.371Z,18.68
2019-01-19T09:42:57.774Z,18.69
2019-01-19T09:43:58.136Z,18.69
2019-01-19T09:44:57.490Z,18.7
2019-01-19T09:45:57.424Z,18.69
2019-01-19T09:46:58.195Z,18.7
2019-01-19T09:47:58.762Z,18.69
2019-01-19T09:48:57.698Z,18.7
2019-01-19T09:49:57.571Z,18.7
2019-01-19T09:50:57.861Z,18.72
2019-01-19T09:51:57.687Z,18.72
2019-01-19T09:52:58.289Z,18.72
2019-01-19T09:53:57.478Z,18.72
2019-01-19T09:54:59.990Z,18.73
2019-01-19T09:55:57.717Z,18.73
2019-01-19T09:56:57.738Z,18.72
2019-01-19T09:57:58.064Z,18.74
2019-01-19T09:58:58.129Z,18.73
2019-01-19T09:59:57.877Z,18.74
2019-01-19T10:01:00.178Z,18.75
2019-01-19T10:01:57.939Z,18.75
2019-01-19T10:02:57.745Z,18.76
2019-01-19T10:03:57.719Z,18.76
2019-01-19T10:04:57.711Z,18.78
2019-01-19T10:05:57.663Z,18.77
2019-01-19T10:06:57.807Z,18.76
2019-01-19T10:07:57.458Z,18.76
2019-01-19T10:08:57.296Z,18.74
2019-01-19T10:09:57.525Z,18.75
2019-01-19T10:10:57.699Z,18.75
2019-01-19T10:11:59.554Z,18.76
2019-01-19T10:12:57.465Z,18.76
2019-01-19T10:13:57.864Z,18.76
2019-01-19T10:14:57.893Z,18.75
2019-01-19T10:15:57.783Z,18.75
2019-01-19T10:16:57.271Z,18.74
2019-01-19T10:17:57.466Z,18.75
2019-01-19T10:18:57.551Z,18.75
2019-01-19T10:19:57.413Z,18.74
2019-01-19T10:20:57.355Z,18.75
2019-01-19T10:21:57.472Z,18.75
2019-01-19T10:22:57.655Z,18.74
2019-01-19T10:23:57.450Z,18.75
2019-01-19T10:24:57.486Z,18.74
2019-01-19T10:25:57.591Z,18.75
2019-01-19T10:26:57.851Z,18.75
2019-01-19T10:27:57.719Z,18.74
2019-01-19T10:28:57.623Z,18.76
2019-01-19T10:29:57.272Z,18.78
2019-01-19T10:30:57.766Z,18.78
2019-01-19T10:31:57.742Z,18.74
2019-01-19T10:32:57.717Z,18.78
2019-01-19T10:33:57.656Z,18.79
2019-01-19T10:34:57.590Z,18.79
2019-01-19T10:35:57.684Z,18.79
2019-01-19T10:36:58.225Z,18.8
2019-01-19T10:37:58.085Z,18.8
2019-01-19T10:38:57.682Z,18.81
2019-01-19T10:39:57.680Z,18.82
2019-01-19T10:40:58.059Z,18.84
2019-01-19T10:41:57.665Z,18.84
2019-01-19T10:42:57.426Z,18.84
2019-01-19T10:43:57.695Z,18.84
2019-01-19T10:44:57.745Z,18.85
2019-01-19T10:45:57.955Z,18.86
2019-01-19T10:46:57.934Z,18.87
2019-01-19T10:47:57.699Z,18.89
2019-01-19T10:48:57.500Z,18.89
2019-01-19T10:49:57.776Z,18.88
2019-01-19T10:50:57.468Z,18.9
2019-01-19T10:51:59.897Z,18.9
2019-01-19T10:52:57.582Z,18.9
2019-01-19T10:53:57.742Z,18.91
2019-01-19T10:54:57.700Z,18.91
2019-01-19T10:55:57.854Z,18.93
2019-01-19T10:56:57.526Z,18.93
2019-01-19T10:57:57.419Z,18.94
2019-01-19T10:58:57.870Z,18.96
2019-01-19T10:59:57.668Z,18.95
2019-01-19T11:00:57.707Z,18.97
2019-01-19T11:01:57.973Z,19
2019-01-19T11:02:58.073Z,18.98
2019-01-19T11:03:57.385Z,18.98
2019-01-19T11:04:58.432Z,18.97
2019-01-19T11:05:57.726Z,18.97
2019-01-19T11:06:57.827Z,18.97
2019-01-19T11:08:04.341Z,18.97
2019-01-19T11:08:57.308Z,18.97
2019-01-19T11:09:58.424Z,18.98
2019-01-19T11:10:57.887Z,18.97
2019-01-19T11:11:57.397Z,18.97
2019-01-19T11:12:58.063Z,18.97
2019-01-19T11:13:57.406Z,18.97
2019-01-19T11:14:59.603Z,18.97
2019-01-19T11:15:57.513Z,18.97
2019-01-19T11:16:57.680Z,19.03
2019-01-19T11:17:57.563Z,19.04
2019-01-19T11:18:57.960Z,19.03
2019-01-19T11:19:57.334Z,19.07
2019-01-19T11:20:57.858Z,19.07
2019-01-19T11:21:57.410Z,19.11
2019-01-19T11:22:58.189Z,19.15
2019-01-19T11:23:57.440Z,19.15
2019-01-19T11:24:57.237Z,19.22
2019-01-19T11:25:58.006Z,19.2
2019-01-19T11:26:57.928Z,19.17
2019-01-19T11:27:57.985Z,19.17
2019-01-19T11:28:58.048Z,19.15
2019-01-19T11:29:57.427Z,19.15
2019-01-19T11:30:57.758Z,19.15
2019-01-19T11:31:58.481Z,19.15
2019-01-19T11:32:58.275Z,19.14
2019-01-19T11:33:57.523Z,19.15
2019-01-19T11:34:57.461Z,19.18
2019-01-19T11:35:57.640Z,19.16
2019-01-19T11:36:57.858Z,19.17
2019-01-19T11:37:57.428Z,19.15
2019-01-19T11:38:57.744Z,19.16
2019-01-19T11:39:57.871Z,19.17
2019-01-19T11:40:57.970Z,19.19
2019-01-19T11:41:57.925Z,19.14
2019-01-19T11:42:58.132Z,19.16
2019-01-19T11:43:58.086Z,19.15
2019-01-19T11:44:57.410Z,19.17
2019-01-19T11:45:57.835Z,19.18
2019-01-19T11:46:58.231Z,19.2
2019-01-19T11:47:57.403Z,19.21
2019-01-19T11:48:57.206Z,19.21
2019-01-19T11:49:57.759Z,19.21
2019-01-19T11:50:57.718Z,19.24
2019-01-19T11:51:57.671Z,19.23
2019-01-19T11:52:57.682Z,19.25
2019-01-19T11:53:57.701Z,19.25
2019-01-19T11:54:57.742Z,19.25
2019-01-19T11:55:58.077Z,19.28
2019-01-19T11:56:57.530Z,19.28
2019-01-19T11:57:57.802Z,19.32
2019-01-19T11:58:58.050Z,19.31
2019-01-19T11:59:57.458Z,19.33
2019-01-19T12:00:57.550Z,19.31
2019-01-19T12:01:57.382Z,19.32
2019-01-19T12:02:57.513Z,19.33
2019-01-19T12:03:57.830Z,19.33
2019-01-19T12:04:57.264Z,19.33
2019-01-19T12:05:57.877Z,19.34
2019-01-19T12:06:58.484Z,19.34
2019-01-19T12:07:58.286Z,19.35
2019-01-19T12:08:57.952Z,19.37
2019-01-19T12:09:57.987Z,19.35
2019-01-19T12:10:57.609Z,19.37
2019-01-19T12:11:58.444Z,19.38
2019-01-19T12:12:59.089Z,19.38
2019-01-19T12:13:58.165Z,19.38
2019-01-19T12:14:57.413Z,19.39
2019-01-19T12:15:57.335Z,19.39
2019-01-19T12:16:57.300Z,19.39
2019-01-19T12:17:58.091Z,19.39
2019-01-19T12:18:57.864Z,19.39
2019-01-19T12:19:57.751Z,19.39
2019-01-19T12:20:58.545Z,19.39
2019-01-19T12:21:57.326Z,19.39
2019-01-19T12:22:57.808Z,19.4
2019-01-19T12:23:57.685Z,19.41
2019-01-19T12:24:58.144Z,19.42
2019-01-19T12:25:58.140Z,19.4
2019-01-19T12:26:57.438Z,19.41
2019-01-19T12:27:58.475Z,19.41
2019-01-19T12:28:57.498Z,19.43
2019-01-19T12:29:57.659Z,19.44
2019-01-19T12:30:57.828Z,19.45
2019-01-19T12:31:57.958Z,19.44
2019-01-19T12:32:57.903Z,19.43
2019-01-19T12:33:58.400Z,19.44
2019-01-19T12:34:58.907Z,19.43
2019-01-19T12:35:58.559Z,19.42
2019-01-19T12:36:57.696Z,19.43
2019-01-19T12:37:57.664Z,19.46
2019-01-19T12:38:57.906Z,19.46
2019-01-19T12:39:57.976Z,19.44
2019-01-19T12:40:57.687Z,19.43
2019-01-19T12:41:58.229Z,19.42
2019-01-19T12:42:57.362Z,19.44
2019-01-19T12:43:57.482Z,19.42
2019-01-19T12:44:57.765Z,19.42
2019-01-19T12:45:57.224Z,19.41
2019-01-19T12:46:57.696Z,19.42
2019-01-19T12:47:57.638Z,19.42
2019-01-19T12:48:57.597Z,19.41
2019-01-19T12:49:58.369Z,19.41
2019-01-19T12:50:57.721Z,19.42
2019-01-19T12:51:58.244Z,19.4
2019-01-19T12:52:57.741Z,19.4
2019-01-19T12:53:57.883Z,19.4
2019-01-19T12:54:57.484Z,19.4